sensor_id;sensor_type;location;lat;lon;timestamp;pressure;altitude;pressure_sealevel;temperature;humidity
35676;BME280;21790;42.668;23.298;2023-01-28T00:01:39;94049.59;;;7.77;47.82
35676;BME280;21790;42.668;23.298;2023-01-28T00:04:05;94045.03;;;7.83;47.88
35676;BME280;21790;42.668;23.298;2023-01-28T00:06:30;94053.25;;;7.92;47.47
35676;BME280;21790;42.668;23.298;2023-01-28T00:08:56;94052.03;;;7.93;47.56
35676;BME280;21790;42.668;23.298;2023-01-28T00:11:21;94065.47;;;7.91;47.33
35676;BME280;21790;42.668;23.298;2023-01-28T00:13:53;94062.91;;;8.06;47.30
35676;BME280;21790;42.668;23.298;2023-01-28T00:16:19;94066.59;;;7.85;47.57
35676;BME280;21790;42.668;23.298;2023-01-28T00:18:47;94072.53;;;7.74;48.06
35676;BME280;21790;42.668;23.298;2023-01-28T00:21:14;94075.59;;;7.85;48.11
35676;BME280;21790;42.668;23.298;2023-01-28T00:23:42;94080.00;;;7.92;47.82
35676;BME280;21790;42.668;23.298;2023-01-28T00:26:12;94076.50;;;7.73;48.06
35676;BME280;21790;42.668;23.298;2023-01-28T00:28:39;94076.66;;;7.79;48.03
35676;BME280;21790;42.668;23.298;2023-01-28T00:31:05;94087.50;;;7.73;47.85
35676;BME280;21790;42.668;23.298;2023-01-28T00:33:31;94081.53;;;7.75;47.85
35676;BME280;21790;42.668;23.298;2023-01-28T00:35:57;94087.47;;;7.64;48.00
35676;BME280;21790;42.668;23.298;2023-01-28T00:38:23;94094.53;;;7.83;47.92
35676;BME280;21790;42.668;23.298;2023-01-28T00:40:48;94086.13;;;7.78;48.10
35676;BME280;21790;42.668;23.298;2023-01-28T00:43:14;94084.59;;;7.86;47.44
35676;BME280;21790;42.668;23.298;2023-01-28T00:45:40;94100.63;;;7.87;47.33
35676;BME280;21790;42.668;23.298;2023-01-28T00:48:05;94090.88;;;7.77;47.77
35676;BME280;21790;42.668;23.298;2023-01-28T00:50:31;94094.84;;;7.85;47.21
35676;BME280;21790;42.668;23.298;2023-01-28T00:52:57;94089.63;;;7.87;47.34
35676;BME280;21790;42.668;23.298;2023-01-28T00:55:23;94093.00;;;7.82;47.32
35676;BME280;21790;42.668;23.298;2023-01-28T00:57:49;94090.41;;;7.88;47.48
35676;BME280;21790;42.668;23.298;2023-01-28T01:00:15;94090.88;;;7.77;47.81
35676;BME280;21790;42.668;23.298;2023-01-28T01:02:41;94089.81;;;7.84;47.74
35676;BME280;21790;42.668;23.298;2023-01-28T01:05:06;94096.69;;;7.79;47.61
35676;BME280;21790;42.668;23.298;2023-01-28T01:07:32;94095.75;;;7.82;47.02
35676;BME280;21790;42.668;23.298;2023-01-28T01:10:10;94090.53;;;8.03;47.01
35676;BME280;21790;42.668;23.298;2023-01-28T01:12:38;94096.97;;;7.99;47.18
35676;BME280;21790;42.668;23.298;2023-01-28T01:15:06;94091.47;;;7.99;46.89
35676;BME280;21790;42.668;23.298;2023-01-28T01:17:37;94092.22;;;7.91;47.34
35676;BME280;21790;42.668;23.298;2023-01-28T01:20:05;94095.75;;;7.91;47.31
35676;BME280;21790;42.668;23.298;2023-01-28T01:22:35;94102.00;;;7.92;47.36
35676;BME280;21790;42.668;23.298;2023-01-28T01:25:02;94091.19;;;7.88;47.43
35676;BME280;21790;42.668;23.298;2023-01-28T01:27:29;94106.47;;;7.89;47.34
35676;BME280;21790;42.668;23.298;2023-01-28T01:29:54;94101.72;;;7.81;47.42
35676;BME280;21790;42.668;23.298;2023-01-28T01:32:21;94101.41;;;7.97;47.13
35676;BME280;21790;42.668;23.298;2023-01-28T01:34:47;94099.13;;;7.77;47.14
35676;BME280;21790;42.668;23.298;2023-01-28T01:37:13;94103.56;;;7.84;47.31
35676;BME280;21790;42.668;23.298;2023-01-28T01:39:38;94100.50;;;7.64;47.96
35676;BME280;21790;42.668;23.298;2023-01-28T01:42:04;94103.38;;;7.60;47.72
35676;BME280;21790;42.668;23.298;2023-01-28T01:50:26;94104.91;;;7.97;47.05
35676;BME280;21790;42.668;23.298;2023-01-28T01:52:56;94107.19;;;7.81;47.66
35676;BME280;21790;42.668;23.298;2023-01-28T01:55:26;94109.81;;;7.93;47.57
35676;BME280;21790;42.668;23.298;2023-01-28T01:57:54;94107.97;;;7.72;47.90
35676;BME280;21790;42.668;23.298;2023-01-28T02:00:21;94090.41;;;7.51;48.16
35676;BME280;21790;42.668;23.298;2023-01-28T02:02:47;94101.22;;;7.55;47.91
35676;BME280;21790;42.668;23.298;2023-01-28T02:05:16;94099.09;;;7.59;47.86
35676;BME280;21790;42.668;23.298;2023-01-28T02:07:42;94109.19;;;7.71;47.61
35676;BME280;21790;42.668;23.298;2023-01-28T02:10:09;94118.81;;;7.76;47.63
35676;BME280;21790;42.668;23.298;2023-01-28T02:12:35;94118.38;;;7.68;47.64
35676;BME280;21790;42.668;23.298;2023-01-28T02:15:09;94114.69;;;7.71;47.69
35676;BME280;21790;42.668;23.298;2023-01-28T02:17:36;94114.69;;;7.71;47.51
35676;BME280;21790;42.668;23.298;2023-01-28T02:20:06;94121.13;;;7.77;47.64
35676;BME280;21790;42.668;23.298;2023-01-28T02:30:39;94121.13;;;7.68;47.40
35676;BME280;21790;42.668;23.298;2023-01-28T02:33:08;94123.56;;;7.66;47.29
35676;BME280;21790;42.668;23.298;2023-01-28T02:35:45;94120.47;;;7.64;47.36
35676;BME280;21790;42.668;23.298;2023-01-28T02:38:15;94118.81;;;7.76;47.13
35676;BME280;21790;42.668;23.298;2023-01-28T02:40:45;94117.28;;;7.75;47.45
35676;BME280;21790;42.668;23.298;2023-01-28T02:46:02;94123.22;;;7.64;47.33
35676;BME280;21790;42.668;23.298;2023-01-28T02:48:51;94120.91;;;7.53;47.39
35676;BME280;21790;42.668;23.298;2023-01-28T02:53:56;94114.69;;;7.62;47.51
35676;BME280;21790;42.668;23.298;2023-01-28T02:56:33;94118.66;;;7.70;47.41
35676;BME280;21790;42.668;23.298;2023-01-28T02:59:45;94125.72;;;7.89;46.67
35676;BME280;21790;42.668;23.298;2023-01-28T03:04:31;94125.97;;;7.64;47.67
35676;BME280;21790;42.668;23.298;2023-01-28T03:06:59;94132.72;;;7.81;47.12
35676;BME280;21790;42.668;23.298;2023-01-28T03:09:28;94126.28;;;7.75;47.05
35676;BME280;21790;42.668;23.298;2023-01-28T03:14:38;94131.50;;;7.73;47.11
35676;BME280;21790;42.668;23.298;2023-01-28T03:20:09;94135.75;;;7.65;47.10
35676;BME280;21790;42.668;23.298;2023-01-28T03:22:55;94135.91;;;7.71;47.37
35676;BME280;21790;42.668;23.298;2023-01-28T03:25:40;94137.47;;;7.81;46.92
35676;BME280;21790;42.668;23.298;2023-01-28T03:28:25;94140.06;;;7.84;47.04
35676;BME280;21790;42.668;23.298;2023-01-28T03:31:12;94130.88;;;7.69;47.18
35676;BME280;21790;42.668;23.298;2023-01-28T03:33:57;94131.34;;;7.68;47.34
35676;BME280;21790;42.668;23.298;2023-01-28T03:36:42;94135.03;;;7.83;47.31
35676;BME280;21790;42.668;23.298;2023-01-28T03:39:23;94131.50;;;7.82;46.81
35676;BME280;21790;42.668;23.298;2023-01-28T03:44:21;94137.50;;;7.90;46.71
35676;BME280;21790;42.668;23.298;2023-01-28T03:47:05;94142.81;;;7.93;46.57
35676;BME280;21790;42.668;23.298;2023-01-28T03:49:32;94142.50;;;7.82;46.83
35676;BME280;21790;42.668;23.298;2023-01-28T03:51:58;94149.06;;;7.76;47.14
35676;BME280;21790;42.668;23.298;2023-01-28T03:54:23;94145.59;;;7.84;46.57
35676;BME280;21790;42.668;23.298;2023-01-28T03:56:48;94147.25;;;7.73;47.24
35676;BME280;21790;42.668;23.298;2023-01-28T03:59:14;94155.03;;;7.83;47.08
35676;BME280;21790;42.668;23.298;2023-01-28T04:01:39;94144.38;;;7.85;46.27
35676;BME280;21790;42.668;23.298;2023-01-28T04:04:04;94152.13;;;7.87;46.05
35676;BME280;21790;42.668;23.298;2023-01-28T04:06:30;94150.16;;;7.87;46.63
35676;BME280;21790;42.668;23.298;2023-01-28T04:08:55;94153.97;;;7.72;47.08
35676;BME280;21790;42.668;23.298;2023-01-28T04:11:23;94155.34;;;7.67;46.92
35676;BME280;21790;42.668;23.298;2023-01-28T04:13:50;94160.06;;;7.76;46.44
35676;BME280;21790;42.668;23.298;2023-01-28T04:16:16;94164.19;;;7.71;46.75
35676;BME280;21790;42.668;23.298;2023-01-28T04:18:42;94166.94;;;7.71;46.77
35676;BME280;21790;42.668;23.298;2023-01-28T04:21:08;94164.03;;;7.75;46.95
35676;BME280;21790;42.668;23.298;2023-01-28T04:23:34;94170.00;;;7.73;46.40
35676;BME280;21790;42.668;23.298;2023-01-28T04:25:59;94167.72;;;7.72;46.86
35676;BME280;21790;42.668;23.298;2023-01-28T04:28:24;94164.47;;;7.64;46.72
35676;BME280;21790;42.668;23.298;2023-01-28T04:30:53;94177.59;;;7.60;46.87
35676;BME280;21790;42.668;23.298;2023-01-28T04:33:18;94180.09;;;7.67;46.78
35676;BME280;21790;42.668;23.298;2023-01-28T04:35:44;94187.00;;;7.90;47.91
35676;BME280;21790;42.668;23.298;2023-01-28T04:38:09;94179.06;;;8.01;47.11
35676;BME280;21790;42.668;23.298;2023-01-28T04:40:35;94185.72;;;7.64;47.30
35676;BME280;21790;42.668;23.298;2023-01-28T04:43:00;94193.00;;;7.48;47.58
35676;BME280;21790;42.668;23.298;2023-01-28T04:45:26;94187.41;;;7.61;47.10
35676;BME280;21790;42.668;23.298;2023-01-28T04:47:51;94196.53;;;7.49;47.52
35676;BME280;21790;42.668;23.298;2023-01-28T04:50:17;94200.19;;;7.46;47.54
35676;BME280;21790;42.668;23.298;2023-01-28T04:52:43;94192.22;;;7.39;47.32
35676;BME280;21790;42.668;23.298;2023-01-28T04:55:08;94198.06;;;7.59;47.01
35676;BME280;21790;42.668;23.298;2023-01-28T04:57:34;94199.88;;;7.53;47.45
35676;BME280;21790;42.668;23.298;2023-01-28T04:59:59;94198.06;;;7.59;47.38
35676;BME280;21790;42.668;23.298;2023-01-28T05:02:24;94203.81;;;7.43;48.13
35676;BME280;21790;42.668;23.298;2023-01-28T05:04:50;94210.78;;;7.66;47.68
35676;BME280;21790;42.668;23.298;2023-01-28T05:07:15;94204.22;;;7.72;47.55
35676;BME280;21790;42.668;23.298;2023-01-28T05:09:41;94189.88;;;7.68;47.17
35676;BME280;21790;42.668;23.298;2023-01-28T05:12:06;94215.84;;;7.76;47.30
35676;BME280;21790;42.668;23.298;2023-01-28T05:14:32;94220.13;;;7.77;46.79
35676;BME280;21790;42.668;23.298;2023-01-28T05:16:57;94223.94;;;7.71;46.74
35676;BME280;21790;42.668;23.298;2023-01-28T05:19:23;94211.69;;;7.63;46.98
35676;BME280;21790;42.668;23.298;2023-01-28T05:21:48;94220.88;;;7.69;47.00
35676;BME280;21790;42.668;23.298;2023-01-28T05:24:14;94221.78;;;7.75;47.15
35676;BME280;21790;42.668;23.298;2023-01-28T05:26:40;94221.06;;;7.74;46.84
35676;BME280;21790;42.668;23.298;2023-01-28T05:29:05;94219.53;;;7.82;46.32
35676;BME280;21790;42.668;23.298;2023-01-28T05:31:31;94230.22;;;7.80;46.53
35676;BME280;21790;42.668;23.298;2023-01-28T05:33:56;94229.44;;;7.71;47.01
35676;BME280;21790;42.668;23.298;2023-01-28T05:36:22;94240.31;;;7.74;46.85
35676;BME280;21790;42.668;23.298;2023-01-28T05:38:47;94235.69;;;7.71;46.94
35676;BME280;21790;42.668;23.298;2023-01-28T05:41:12;94237.06;;;7.76;46.97
35676;BME280;21790;42.668;23.298;2023-01-28T05:43:38;94237.59;;;7.92;46.51
35676;BME280;21790;42.668;23.298;2023-01-28T05:46:03;94242.19;;;7.95;46.28
35676;BME280;21790;42.668;23.298;2023-01-28T05:48:28;94238.34;;;7.93;46.05
35676;BME280;21790;42.668;23.298;2023-01-28T05:50:54;94237.91;;;7.94;45.93
35676;BME280;21790;42.668;23.298;2023-01-28T05:53:19;94241.41;;;7.95;46.14
35676;BME280;21790;42.668;23.298;2023-01-28T05:55:48;94240.91;;;7.78;46.59
35676;BME280;21790;42.668;23.298;2023-01-28T05:58:14;94240.31;;;7.74;46.05
35676;BME280;21790;42.668;23.298;2023-01-28T06:00:39;94243.94;;;7.71;46.49
35676;BME280;21790;42.668;23.298;2023-01-28T06:03:04;94243.31;;;7.58;46.31
35676;BME280;21790;42.668;23.298;2023-01-28T06:05:30;94250.31;;;7.59;46.81
35676;BME280;21790;42.668;23.298;2023-01-28T06:07:55;94255.88;;;7.68;46.57
35676;BME280;21790;42.668;23.298;2023-01-28T06:10:20;94273.03;;;7.41;46.79
35676;BME280;21790;42.668;23.298;2023-01-28T06:12:46;94260.53;;;7.58;46.47
35676;BME280;21790;42.668;23.298;2023-01-28T06:15:11;94269.31;;;7.75;46.18
35676;BME280;21790;42.668;23.298;2023-01-28T06:17:36;94272.31;;;7.59;46.54
35676;BME280;21790;42.668;23.298;2023-01-28T06:20:02;94281.22;;;7.63;46.54
35676;BME280;21790;42.668;23.298;2023-01-28T06:22:28;94279.84;;;7.68;45.94
35676;BME280;21790;42.668;23.298;2023-01-28T06:24:53;94285.03;;;7.66;46.19
35676;BME280;21790;42.668;23.298;2023-01-28T06:27:18;94291.91;;;7.70;46.51
35676;BME280;21790;42.668;23.298;2023-01-28T06:29:44;94294.63;;;7.61;46.28
35676;BME280;21790;42.668;23.298;2023-01-28T06:32:09;94289.75;;;7.65;46.79
35676;BME280;21790;42.668;23.298;2023-01-28T06:34:34;94298.31;;;7.67;46.32
35676;BME280;21790;42.668;23.298;2023-01-28T06:37:00;94297.00;;;7.41;46.77
35676;BME280;21790;42.668;23.298;2023-01-28T06:39:25;94308.56;;;7.36;47.39
35676;BME280;21790;42.668;23.298;2023-01-28T06:41:52;94305.91;;;7.54;47.05
35676;BME280;21790;42.668;23.298;2023-01-28T06:44:17;94311.53;;;7.50;47.10
35676;BME280;21790;42.668;23.298;2023-01-28T06:46:42;94316.53;;;7.74;46.44
35676;BME280;21790;42.668;23.298;2023-01-28T06:49:08;94326.00;;;7.73;46.47
35676;BME280;21790;42.668;23.298;2023-01-28T06:51:33;94319.31;;;7.83;45.84
35676;BME280;21790;42.668;23.298;2023-01-28T06:53:58;94325.25;;;7.81;46.15
35676;BME280;21790;42.668;23.298;2023-01-28T06:56:24;94329.06;;;7.75;46.09
35676;BME280;21790;42.668;23.298;2023-01-28T06:58:49;94337.78;;;7.73;46.09
35676;BME280;21790;42.668;23.298;2023-01-28T07:01:14;94333.50;;;7.72;46.21
35676;BME280;21790;42.668;23.298;2023-01-28T07:03:40;94333.75;;;7.65;46.03
35676;BME280;21790;42.668;23.298;2023-01-28T07:06:05;94332.31;;;7.51;46.32
35676;BME280;21790;42.668;23.298;2023-01-28T07:08:30;94341.16;;;7.46;46.77
35676;BME280;21790;42.668;23.298;2023-01-28T07:10:56;94342.41;;;7.54;46.67
35676;BME280;21790;42.668;23.298;2023-01-28T07:13:21;94343.81;;;7.59;46.72
35676;BME280;21790;42.668;23.298;2023-01-28T07:15:46;94352.00;;;7.50;46.67
35676;BME280;21790;42.668;23.298;2023-01-28T07:18:12;94342.41;;;7.54;46.68
35676;BME280;21790;42.668;23.298;2023-01-28T07:20:38;94358.88;;;7.76;46.10
35676;BME280;21790;42.668;23.298;2023-01-28T07:23:03;94362.53;;;7.73;46.37
35676;BME280;21790;42.668;23.298;2023-01-28T07:25:28;94357.72;;;7.65;46.51
35676;BME280;21790;42.668;23.298;2023-01-28T07:27:54;94359.44;;;7.71;46.39
35676;BME280;21790;42.668;23.298;2023-01-28T07:30:20;94370.78;;;7.73;46.45
35676;BME280;21790;42.668;23.298;2023-01-28T07:32:45;94372.31;;;7.74;46.27
35676;BME280;21790;42.668;23.298;2023-01-28T07:35:11;94365.69;;;7.63;46.60
35676;BME280;21790;42.668;23.298;2023-01-28T07:37:38;94373.88;;;7.84;46.44
35676;BME280;21790;42.668;23.298;2023-01-28T07:40:03;94371.91;;;7.85;46.45
35676;BME280;21790;42.668;23.298;2023-01-28T07:42:29;94375.91;;;7.93;46.07
35676;BME280;21790;42.668;23.298;2023-01-28T07:44:54;94379.84;;;7.83;46.24
35676;BME280;21790;42.668;23.298;2023-01-28T07:47:19;94377.09;;;7.83;46.24
35676;BME280;21790;42.668;23.298;2023-01-28T07:49:45;94378.84;;;7.68;46.74
35676;BME280;21790;42.668;23.298;2023-01-28T07:52:11;94383.41;;;7.40;47.03
35676;BME280;21790;42.668;23.298;2023-01-28T07:54:36;94389.72;;;7.49;46.89
35676;BME280;21790;42.668;23.298;2023-01-28T07:57:01;94387.16;;;7.55;46.70
35676;BME280;21790;42.668;23.298;2023-01-28T07:59:30;94391.31;;;7.60;46.66
35676;BME280;21790;42.668;23.298;2023-01-28T08:01:55;94383.88;;;7.69;46.41
35676;BME280;21790;42.668;23.298;2023-01-28T08:04:20;94391.19;;;7.63;46.93
35676;BME280;21790;42.668;23.298;2023-01-28T08:06:46;94397.06;;;7.74;46.68
35676;BME280;21790;42.668;23.298;2023-01-28T08:09:11;94398.28;;;7.73;46.67
35676;BME280;21790;42.668;23.298;2023-01-28T08:11:39;94399.28;;;7.88;46.38
35676;BME280;21790;42.668;23.298;2023-01-28T08:14:05;94396.47;;;7.79;46.55
35676;BME280;21790;42.668;23.298;2023-01-28T08:16:31;94398.88;;;7.99;45.98
35676;BME280;21790;42.668;23.298;2023-01-28T08:18:57;94407.09;;;7.90;46.12
35676;BME280;21790;42.668;23.298;2023-01-28T08:21:22;94399.31;;;7.97;46.24
35676;BME280;21790;42.668;23.298;2023-01-28T08:23:48;94404.38;;;7.99;45.87
35676;BME280;21790;42.668;23.298;2023-01-28T08:26:14;94415.41;;;7.77;46.01
35676;BME280;21790;42.668;23.298;2023-01-28T08:28:39;94404.00;;;7.88;46.13
35676;BME280;21790;42.668;23.298;2023-01-28T08:31:04;94411.56;;;7.75;46.50
35676;BME280;21790;42.668;23.298;2023-01-28T08:33:30;94411.81;;;7.89;46.34
35676;BME280;21790;42.668;23.298;2023-01-28T08:35:55;94415.09;;;7.75;46.40
35676;BME280;21790;42.668;23.298;2023-01-28T08:38:21;94407.97;;;7.87;46.07
35676;BME280;21790;42.668;23.298;2023-01-28T08:40:47;94406.25;;;7.80;46.45
35676;BME280;21790;42.668;23.298;2023-01-28T08:43:14;94419.38;;;7.76;46.31
35676;BME280;21790;42.668;23.298;2023-01-28T08:45:40;94406.59;;;7.61;46.47
35676;BME280;21790;42.668;23.298;2023-01-28T08:48:08;94414.09;;;7.91;46.28
35676;BME280;21790;42.668;23.298;2023-01-28T08:50:37;94408.59;;;7.91;46.59
35676;BME280;21790;42.668;23.298;2023-01-28T08:53:09;94402.72;;;8.02;45.97
35676;BME280;21790;42.668;23.298;2023-01-28T08:55:34;94408.88;;;8.15;46.11
35676;BME280;21790;42.668;23.298;2023-01-28T08:58:05;94414.66;;;8.48;45.40
35676;BME280;21790;42.668;23.298;2023-01-28T09:00:31;94412.63;;;8.30;45.89
35676;BME280;21790;42.668;23.298;2023-01-28T09:02:57;94416.31;;;8.36;45.22
35676;BME280;21790;42.668;23.298;2023-01-28T09:05:22;94415.88;;;8.47;45.41
35676;BME280;21790;42.668;23.298;2023-01-28T09:07:47;94408.56;;;8.53;45.46
35676;BME280;21790;42.668;23.298;2023-01-28T09:10:13;94410.69;;;8.39;45.01
35676;BME280;21790;42.668;23.298;2023-01-28T09:12:40;94418.34;;;8.54;45.05
35676;BME280;21790;42.668;23.298;2023-01-28T09:15:05;94420.69;;;8.64;45.39
35676;BME280;21790;42.668;23.298;2023-01-28T09:17:31;94423.44;;;8.55;44.37
35676;BME280;21790;42.668;23.298;2023-01-28T09:19:56;94421.81;;;8.36;45.31
35676;BME280;21790;42.668;23.298;2023-01-28T09:22:22;94429.47;;;8.41;45.26
35676;BME280;21790;42.668;23.298;2023-01-28T09:24:47;94424.84;;;8.29;45.29
35676;BME280;21790;42.668;23.298;2023-01-28T09:27:13;94419.22;;;8.42;45.09
35676;BME280;21790;42.668;23.298;2023-01-28T09:29:38;94417.47;;;8.26;44.92
35676;BME280;21790;42.668;23.298;2023-01-28T09:32:05;94414.53;;;8.20;45.59
35676;BME280;21790;42.668;23.298;2023-01-28T09:34:31;94414.06;;;8.13;45.83
35676;BME280;21790;42.668;23.298;2023-01-28T09:36:57;94420.78;;;8.43;45.61
35676;BME280;21790;42.668;23.298;2023-01-28T09:39:22;94415.88;;;8.47;45.81
35676;BME280;21790;42.668;23.298;2023-01-28T09:47:27;94415.44;;;8.57;45.21
35676;BME280;21790;42.668;23.298;2023-01-28T09:49:57;94415.75;;;8.50;45.49
35676;BME280;21790;42.668;23.298;2023-01-28T09:52:25;94418.03;;;8.52;45.69
35676;BME280;21790;42.668;23.298;2023-01-28T09:55:04;94419.44;;;8.56;45.57
35676;BME280;21790;42.668;23.298;2023-01-28T09:57:38;94426.31;;;8.52;45.35
35676;BME280;21790;42.668;23.298;2023-01-28T10:00:22;94420.44;;;8.40;46.03
35676;BME280;21790;42.668;23.298;2023-01-28T10:10:28;94412.75;;;8.66;45.06
35676;BME280;21790;42.668;23.298;2023-01-28T10:13:16;94412.16;;;8.80;45.47
35676;BME280;21790;42.668;23.298;2023-01-28T10:18:46;94415.66;;;8.72;45.40
35676;BME280;21790;42.668;23.298;2023-01-28T10:21:24;94410.59;;;8.61;45.75
35676;BME280;21790;42.668;23.298;2023-01-28T10:24:23;94421.00;;;8.75;45.73
35676;BME280;21790;42.668;23.298;2023-01-28T10:26:50;94408.91;;;8.64;45.85
35676;BME280;21790;42.668;23.298;2023-01-28T10:29:18;94410.16;;;8.72;45.36
35676;BME280;21790;42.668;23.298;2023-01-28T10:31:56;94406.63;;;8.90;45.32
35676;BME280;21790;42.668;23.298;2023-01-28T10:34:24;94411.38;;;8.71;45.60
35676;BME280;21790;42.668;23.298;2023-01-28T10:36:50;94398.31;;;8.62;45.46
35676;BME280;21790;42.668;23.298;2023-01-28T10:39:20;94403.28;;;8.76;45.95
35676;BME280;21790;42.668;23.298;2023-01-28T10:41:46;94400.34;;;8.62;45.79
35676;BME280;21790;42.668;23.298;2023-01-28T10:44:27;94407.22;;;8.66;45.68
35676;BME280;21790;42.668;23.298;2023-01-28T10:46:56;94411.31;;;8.53;45.89
35676;BME280;21790;42.668;23.298;2023-01-28T10:49:28;94405.50;;;8.51;46.58
35676;BME280;21790;42.668;23.298;2023-01-28T10:51:55;94402.69;;;10.57;61.79
35676;BME280;21790;42.668;23.298;2023-01-28T10:54:26;94403.13;;;11.26;49.99
35676;BME280;21790;42.668;23.298;2023-01-28T10:56:59;94389.28;;;11.50;43.78
35676;BME280;21790;42.668;23.298;2023-01-28T10:59:28;94403.81;;;10.98;42.34
35676;BME280;21790;42.668;23.298;2023-01-28T11:04:45;94396.91;;;10.03;42.61
35676;BME280;21790;42.668;23.298;2023-01-28T11:09:55;94405.38;;;9.82;43.61
35676;BME280;21790;42.668;23.298;2023-01-28T11:12:24;94403.41;;;9.64;43.67
35676;BME280;21790;42.668;23.298;2023-01-28T11:20:20;94403.13;;;9.53;44.06
35676;BME280;21790;42.668;23.298;2023-01-28T11:22:47;94395.00;;;9.40;43.82
35676;BME280;21790;42.668;23.298;2023-01-28T11:27:48;94403.75;;;9.11;44.56
35676;BME280;21790;42.668;23.298;2023-01-28T11:30:24;94393.66;;;9.08;44.52
35676;BME280;21790;42.668;23.298;2023-01-28T11:32:57;94398.38;;;9.17;44.58
35676;BME280;21790;42.668;23.298;2023-01-28T11:35:27;94393.34;;;9.24;44.30
35676;BME280;21790;42.668;23.298;2023-01-28T11:37:55;94396.69;;;9.29;44.57
35676;BME280;21790;42.668;23.298;2023-01-28T11:40:20;94391.03;;;9.41;44.30
35676;BME280;21790;42.668;23.298;2023-01-28T11:42:46;94394.25;;;9.31;44.05
35676;BME280;21790;42.668;23.298;2023-01-28T11:48:13;94391.19;;;9.19;43.92
35676;BME280;21790;42.668;23.298;2023-01-28T11:58:28;94387.06;;;9.24;43.49
35676;BME280;21790;42.668;23.298;2023-01-28T12:01:15;94388.59;;;8.89;44.02
35676;BME280;21790;42.668;23.298;2023-01-28T12:33:30;94399.63;;;9.07;43.96
35676;BME280;21790;42.668;23.298;2023-01-28T12:43:52;94396.69;;;8.92;44.09
35676;BME280;21790;42.668;23.298;2023-01-28T12:48:53;94412.91;;;8.90;44.13
35676;BME280;21790;42.668;23.298;2023-01-28T12:51:33;94412.09;;;8.62;44.89
35676;BME280;21790;42.668;23.298;2023-01-28T12:56:34;94418.13;;;8.88;45.22
35676;BME280;21790;42.668;23.298;2023-01-28T13:01:48;94415.53;;;8.94;44.98
35676;BME280;21790;42.668;23.298;2023-01-28T13:04:33;94411.19;;;8.65;45.11
35676;BME280;21790;42.668;23.298;2023-01-28T13:07:08;94416.28;;;8.76;45.21
35676;BME280;21790;42.668;23.298;2023-01-28T13:09:35;94415.22;;;8.82;44.52
35676;BME280;21790;42.668;23.298;2023-01-28T13:12:01;94426.41;;;9.06;44.86
35676;BME280;21790;42.668;23.298;2023-01-28T13:14:28;94427.47;;;8.91;44.23
35676;BME280;21790;42.668;23.298;2023-01-28T13:16:55;94430.09;;;9.12;43.93
35676;BME280;21790;42.668;23.298;2023-01-28T13:19:21;94434.38;;;9.04;43.97
35676;BME280;21790;42.668;23.298;2023-01-28T13:21:47;94437.75;;;8.99;44.37
35676;BME280;21790;42.668;23.298;2023-01-28T13:26:50;94439.13;;;9.13;44.16
35676;BME280;21790;42.668;23.298;2023-01-28T13:29:31;94444.47;;;9.16;44.45
35676;BME280;21790;42.668;23.298;2023-01-28T13:31:58;94438.38;;;9.21;44.15
35676;BME280;21790;42.668;23.298;2023-01-28T13:34:29;94438.81;;;9.38;43.99
35676;BME280;21790;42.668;23.298;2023-01-28T13:36:54;94446.50;;;9.34;43.91
35676;BME280;21790;42.668;23.298;2023-01-28T13:39:21;94446.66;;;9.21;44.53
35676;BME280;21790;42.668;23.298;2023-01-28T13:41:52;94457.06;;;9.27;43.94
35676;BME280;21790;42.668;23.298;2023-01-28T13:46:49;94446.94;;;9.23;44.14
35676;BME280;21790;42.668;23.298;2023-01-28T13:49:15;94455.38;;;9.20;43.98
35676;BME280;21790;42.668;23.298;2023-01-28T13:51:52;94459.19;;;9.22;44.02
35676;BME280;21790;42.668;23.298;2023-01-28T13:54:20;94452.16;;;9.21;43.90
35676;BME280;21790;42.668;23.298;2023-01-28T14:04:39;94461.03;;;9.07;44.17
35676;BME280;21790;42.668;23.298;2023-01-28T14:10:18;94465.75;;;8.98;43.91
35676;BME280;21790;42.668;23.298;2023-01-28T14:17:53;94489.63;;;9.01;44.10
35676;BME280;21790;42.668;23.298;2023-01-28T14:22:48;94492.25;;;9.04;43.98
35676;BME280;21790;42.668;23.298;2023-01-28T14:25:15;94490.56;;;8.98;44.08
35676;BME280;21790;42.668;23.298;2023-01-28T14:27:45;94491.63;;;9.00;44.18
35676;BME280;21790;42.668;23.298;2023-01-28T14:32:47;94504.06;;;9.05;44.00
35676;BME280;21790;42.668;23.298;2023-01-28T14:35:32;94503.91;;;9.08;43.78
35676;BME280;21790;42.668;23.298;2023-01-28T14:37:58;94501.91;;;9.09;43.82
35676;BME280;21790;42.668;23.298;2023-01-28T14:40:27;94502.53;;;9.04;43.60
35676;BME280;21790;42.668;23.298;2023-01-28T14:42:53;94505.00;;;9.11;43.38
35676;BME280;21790;42.668;23.298;2023-01-28T14:48:04;94505.72;;;9.02;43.63
35676;BME280;21790;42.668;23.298;2023-01-28T14:53:18;94514.28;;;8.95;43.35
35676;BME280;21790;42.668;23.298;2023-01-28T14:58:30;94510.78;;;9.04;43.80
35676;BME280;21790;42.668;23.298;2023-01-28T15:00:58;94517.50;;;8.94;44.26
35676;BME280;21790;42.668;23.298;2023-01-28T15:03:25;94517.63;;;8.90;44.17
35676;BME280;21790;42.668;23.298;2023-01-28T15:06:28;94524.13;;;9.14;43.55
35676;BME280;21790;42.668;23.298;2023-01-28T15:09:07;94526.66;;;8.91;44.16
35676;BME280;21790;42.668;23.298;2023-01-28T15:11:36;94519.75;;;8.77;44.48
35676;BME280;21790;42.668;23.298;2023-01-28T15:14:04;94523.53;;;8.70;43.96
35676;BME280;21790;42.668;23.298;2023-01-28T15:16:35;94525.09;;;8.71;44.11
35676;BME280;21790;42.668;23.298;2023-01-28T15:19:01;94528.84;;;8.56;44.54
35676;BME280;21790;42.668;23.298;2023-01-28T15:21:28;94516.38;;;8.42;44.52
35676;BME280;21790;42.668;23.298;2023-01-28T15:23:57;94525.00;;;8.53;44.54
35676;BME280;21790;42.668;23.298;2023-01-28T15:26:26;94529.56;;;8.47;45.41
35676;BME280;21790;42.668;23.298;2023-01-28T15:28:52;94525.78;;;8.63;44.82
35676;BME280;21790;42.668;23.298;2023-01-28T15:33:44;94533.44;;;8.59;44.14
35676;BME280;21790;42.668;23.298;2023-01-28T15:36:09;94524.84;;;8.57;44.51
35676;BME280;21790;42.668;23.298;2023-01-28T15:38:35;94535.38;;;8.49;44.15